Impacts TAF Board
For situational awareness. Not to be used for flight planning purposes.
IDs:

KORD - Chicago/O'Hare Intl, IL, US

Issued at 2100 UTC 19 Jan 2019
Updated at 2243 UTC 19 Jan 2019
Potential Impact None Slight Moderate High
Time2151Z 19/23Z 20/00Z 20/01Z 20/02Z 20/03Z 20/04Z 20/05Z 20/06Z 20/07Z 20/08Z 20/09Z 20/10Z 20/11Z>>
Type OBS PRVL PRVL PRVL PRVL PRVL PRVL
  [TEMP]  
PRVL
  [TEMP]  
PRVL
  [TEMP]  
PRVL
  [TEMP]  
PRVL PRVL PRVL PRVL
VIS 10 6 6 4 4 4 1
  [0.5]  
1
  [0.5]  
1
  [0.5]  
1
  [0.5]  
>6 >6 >6 >6
CIG 15 15 15 20 20 20 20
  [9]  
20
  [9]  
20
  [9]  
20
  [9]  
25 25 25 25
Cover OVC OVC OVC OVC OVC OVC OVC
  [OVC]  
OVC
  [OVC]  
OVC
  [OVC]  
OVC
  [OVC]  
BKN BKN BKN BKN
FltCat MVFR MVFR MVFR MVFR MVFR MVFR IFR
  [LIFR]  
IFR
  [LIFR]  
IFR
  [LIFR]  
IFR
  [LIFR]  
MVFR MVFR MVFR MVFR
WX -SN -SHSN BLSN -SHSN BLSN -SHSN BLSN -SHSN BLSN -SHSN BLSN -SHSN
  [SHSN]  
-SHSN
  [SHSN]  
-SHSN
  [SHSN]  
-SHSN
  [SHSN]  
VCSH VCSH VCSH VCSH
WDir 10 20 20 10 10 10 10
[10]
10
[10]
10
[10]
10
[10]
340 340 340 340
WSpd 23 19 19 17 17 17 14
  [14]  
14
  [14]  
14
  [14]  
14
  [14]  
14 14 14 14
WGst 33 31 31 27 27 27 21
  [21]  
21
  [21]  
21
  [21]  
21
  [21]  
21 21 21 21
Raw TAF
KORD 192100Z 1921/2024 02019G31KT 6SM -SHSN BLSN OVC015
  FM200100 01017G27KT 4SM -SHSN BLSN OVC020
  FM200400 01014G21KT 1SM -SHSN OVC020
  TEMPO 2004/2008 1/2SM SHSN OVC009
  FM200800 34014G21KT P6SM VCSH BKN025
  FM201400 34013KT P6SM SCT030
  FM202300 33007KT P6SM FEW030


Raw METAR
KORD 192151Z 01023G33KT 10SM R10L/5500VP6000FT -SN OVC015 M04/M07 A2999 RMK AO2 PK WND 02033/2121 SNB45 SLP166 DRSN P0000 T10441067 $
KORD 192051Z 02022G32KT 10SM R10L/5000VP6000FT OVC017 M04/M07 A2996 RMK AO2 PK WND 01034/2038 SLP155 DRSN 60000 T10391067 56022 $
KORD 191951Z 03023G32KT 5SM R10L/5000VP6000FT BLSN OVC015 M04/M06 A2997 RMK AO2 PK WND 03032/1937 SLP158 T10391061 $
KORD 191943Z 03023G32KT 5SM R10L/6000VP6000FT BLSN OVC015 M04/M06 A2998 RMK AO2 PK WND 03032/1937 T10391061 $

METAR Board
Radar Display
Forecast Discussion
For situational awareness. Not to be used for flight planning purposes.